sensor_id;sensor_type;location;lat;lon;timestamp;pressure;altitude;pressure_sealevel;temperature;humidity
21803;BME280;18591;47.080;22.214;2023-10-19T00:00:16;99358.38;;;10.94;51.78
21803;BME280;18591;47.080;22.214;2023-10-19T00:02:23;99349.50;;;10.92;51.53
21803;BME280;18591;47.080;22.214;2023-10-19T00:04:26;99351.44;;;10.88;52.04
21803;BME280;18591;47.080;22.214;2023-10-19T00:06:28;99347.00;;;10.87;51.84
21803;BME280;18591;47.080;22.214;2023-10-19T00:08:31;99352.41;;;10.87;51.83
21803;BME280;18591;47.080;22.214;2023-10-19T00:10:51;99346.34;;;10.82;51.82
21803;BME280;18591;47.080;22.214;2023-10-19T00:13:26;99337.41;;;10.82;51.70
21803;BME280;18591;47.080;22.214;2023-10-19T00:15:40;99338.59;;;10.75;52.32
21803;BME280;18591;47.080;22.214;2023-10-19T00:17:49;99340.41;;;10.74;52.37
21803;BME280;18591;47.080;22.214;2023-10-19T00:19:55;99329.09;;;10.66;52.21
21803;BME280;18591;47.080;22.214;2023-10-19T00:22:18;99325.53;;;10.65;52.13
21803;BME280;18591;47.080;22.214;2023-10-19T00:24:23;99325.81;;;10.59;52.76
21803;BME280;18591;47.080;22.214;2023-10-19T00:26:26;99322.81;;;10.67;52.31
21803;BME280;18591;47.080;22.214;2023-10-19T00:28:33;99314.25;;;10.57;52.88
21803;BME280;18591;47.080;22.214;2023-10-19T00:30:37;99317.75;;;10.59;52.76
21803;BME280;18591;47.080;22.214;2023-10-19T00:32:40;99318.63;;;10.60;53.05
21803;BME280;18591;47.080;22.214;2023-10-19T00:34:43;99313.97;;;10.63;53.07
21803;BME280;18591;47.080;22.214;2023-10-19T00:36:52;99313.19;;;10.61;52.92
21803;BME280;18591;47.080;22.214;2023-10-19T00:38:55;99308.56;;;10.65;52.76
21803;BME280;18591;47.080;22.214;2023-10-19T00:40:59;99312.19;;;10.64;53.03
21803;BME280;18591;47.080;22.214;2023-10-19T00:43:06;99297.94;;;10.62;52.66
21803;BME280;18591;47.080;22.214;2023-10-19T00:45:13;99298.00;;;10.60;53.27
21803;BME280;18591;47.080;22.214;2023-10-19T00:47:17;99297.25;;;10.57;53.19
21803;BME280;18591;47.080;22.214;2023-10-19T00:49:26;99293.44;;;10.62;52.92
21803;BME280;18591;47.080;22.214;2023-10-19T00:51:33;99289.00;;;10.61;52.85
21803;BME280;18591;47.080;22.214;2023-10-19T00:53:37;99295.44;;;10.57;53.00
21803;BME280;18591;47.080;22.214;2023-10-19T00:55:41;99287.53;;;10.54;53.14
21803;BME280;18591;47.080;22.214;2023-10-19T00:57:45;99278.47;;;10.57;53.17
21803;BME280;18591;47.080;22.214;2023-10-19T00:59:50;99280.38;;;10.53;53.39
21803;BME280;18591;47.080;22.214;2023-10-19T01:01:56;99276.97;;;10.50;53.81
21803;BME280;18591;47.080;22.214;2023-10-19T01:04:17;99273.00;;;10.58;52.93
21803;BME280;18591;47.080;22.214;2023-10-19T01:06:25;99272.75;;;10.64;53.67
21803;BME280;18591;47.080;22.214;2023-10-19T01:08:28;99268.66;;;10.76;53.32
21803;BME280;18591;47.080;22.214;2023-10-19T01:10:36;99272.25;;;10.77;53.48
21803;BME280;18591;47.080;22.214;2023-10-19T01:12:39;99264.28;;;10.74;52.72
21803;BME280;18591;47.080;22.214;2023-10-19T01:14:42;99267.31;;;10.66;53.01
21803;BME280;18591;47.080;22.214;2023-10-19T01:16:44;99260.38;;;10.60;53.41
21803;BME280;18591;47.080;22.214;2023-10-19T01:18:49;99262.34;;;10.57;53.83
21803;BME280;18591;47.080;22.214;2023-10-19T01:21:01;99254.00;;;10.63;53.64
21803;BME280;18591;47.080;22.214;2023-10-19T01:23:08;99253.94;;;10.64;53.44
21803;BME280;18591;47.080;22.214;2023-10-19T01:25:12;99250.66;;;10.78;53.34
21803;BME280;18591;47.080;22.214;2023-10-19T01:27:18;99260.94;;;10.68;53.56
21803;BME280;18591;47.080;22.214;2023-10-19T01:29:22;99255.69;;;10.65;53.46
21803;BME280;18591;47.080;22.214;2023-10-19T01:31:28;99245.03;;;10.84;52.83
21803;BME280;18591;47.080;22.214;2023-10-19T01:33:31;99242.25;;;10.86;52.72
21803;BME280;18591;47.080;22.214;2023-10-19T01:35:34;99250.31;;;10.86;52.53
21803;BME280;18591;47.080;22.214;2023-10-19T01:37:55;99247.84;;;10.81;53.45
21803;BME280;18591;47.080;22.214;2023-10-19T01:40:00;99240.66;;;10.61;53.97
21803;BME280;18591;47.080;22.214;2023-10-19T01:42:03;99244.22;;;10.62;54.24
21803;BME280;18591;47.080;22.214;2023-10-19T01:44:06;99234.28;;;10.64;53.76
21803;BME280;18591;47.080;22.214;2023-10-19T01:46:13;99236.16;;;10.82;53.27
21803;BME280;18591;47.080;22.214;2023-10-19T01:48:15;99239.53;;;10.87;53.18
21803;BME280;18591;47.080;22.214;2023-10-19T01:50:18;99232.31;;;10.88;53.25
21803;BME280;18591;47.080;22.214;2023-10-19T01:52:22;99229.91;;;10.82;53.03
21803;BME280;18591;47.080;22.214;2023-10-19T01:54:27;99230.25;;;10.74;53.33
21803;BME280;18591;47.080;22.214;2023-10-19T01:56:29;99228.28;;;10.78;53.26
21803;BME280;18591;47.080;22.214;2023-10-19T01:58:32;99220.53;;;10.72;53.93
21803;BME280;18591;47.080;22.214;2023-10-19T02:00:38;99229.69;;;10.66;53.72
21803;BME280;18591;47.080;22.214;2023-10-19T02:02:41;99225.66;;;10.76;53.69
21803;BME280;18591;47.080;22.214;2023-10-19T02:04:44;99219.84;;;10.66;53.40
21803;BME280;18591;47.080;22.214;2023-10-19T02:06:47;99214.06;;;10.76;53.29
21803;BME280;18591;47.080;22.214;2023-10-19T02:08:54;99212.19;;;10.78;53.50
21803;BME280;18591;47.080;22.214;2023-10-19T02:11:02;99211.31;;;10.77;53.64
21803;BME280;18591;47.080;22.214;2023-10-19T02:13:07;99216.16;;;10.69;53.99
21803;BME280;18591;47.080;22.214;2023-10-19T02:15:10;99214.38;;;10.68;53.58
21803;BME280;18591;47.080;22.214;2023-10-19T02:17:13;99211.66;;;10.70;53.87
21803;BME280;18591;47.080;22.214;2023-10-19T02:19:17;99218.22;;;10.62;53.92
21803;BME280;18591;47.080;22.214;2023-10-19T02:21:22;99210.50;;;10.55;54.25
21803;BME280;18591;47.080;22.214;2023-10-19T02:23:24;99208.66;;;10.55;54.17
21803;BME280;18591;47.080;22.214;2023-10-19T02:25:27;99213.91;;;10.58;53.99
21803;BME280;18591;47.080;22.214;2023-10-19T02:27:31;99209.78;;;10.72;53.66
21803;BME280;18591;47.080;22.214;2023-10-19T02:29:35;99206.31;;;10.68;53.87
21803;BME280;18591;47.080;22.214;2023-10-19T02:31:40;99208.09;;;10.69;53.94
21803;BME280;18591;47.080;22.214;2023-10-19T02:33:43;99210.09;;;10.64;53.82
21803;BME280;18591;47.080;22.214;2023-10-19T02:35:48;99206.94;;;10.54;54.61
21803;BME280;18591;47.080;22.214;2023-10-19T02:37:51;99199.88;;;10.52;54.60
21803;BME280;18591;47.080;22.214;2023-10-19T02:39:53;99204.31;;;10.53;54.86
21803;BME280;18591;47.080;22.214;2023-10-19T02:41:56;99203.78;;;10.44;54.86
21803;BME280;18591;47.080;22.214;2023-10-19T02:44:17;99201.22;;;10.41;55.62
21803;BME280;18591;47.080;22.214;2023-10-19T02:46:20;99197.59;;;10.42;55.09
21803;BME280;18591;47.080;22.214;2023-10-19T02:48:22;99192.22;;;10.42;55.05
21803;BME280;18591;47.080;22.214;2023-10-19T02:50:26;99187.59;;;10.46;55.22
21803;BME280;18591;47.080;22.214;2023-10-19T02:52:28;99182.28;;;10.44;55.55
21803;BME280;18591;47.080;22.214;2023-10-19T02:54:31;99186.59;;;10.49;54.91
21803;BME280;18591;47.080;22.214;2023-10-19T02:56:37;99182.09;;;10.49;54.85
21803;BME280;18591;47.080;22.214;2023-10-19T02:58:44;99187.53;;;10.48;55.01
21803;BME280;18591;47.080;22.214;2023-10-19T03:00:51;99183.81;;;10.50;54.82
21803;BME280;18591;47.080;22.214;2023-10-19T03:02:54;99180.22;;;10.51;55.07
21803;BME280;18591;47.080;22.214;2023-10-19T03:04:56;99177.44;;;10.53;54.99
21803;BME280;18591;47.080;22.214;2023-10-19T03:06:59;99170.25;;;10.53;55.23
21803;BME280;18591;47.080;22.214;2023-10-19T03:09:05;99173.22;;;10.47;55.72
21803;BME280;18591;47.080;22.214;2023-10-19T03:11:15;99172.16;;;10.51;54.84
21803;BME280;18591;47.080;22.214;2023-10-19T03:13:18;99162.28;;;10.52;55.64
21803;BME280;18591;47.080;22.214;2023-10-19T03:15:21;99165.44;;;10.61;54.96
21803;BME280;18591;47.080;22.214;2023-10-19T03:17:24;99160.13;;;10.60;54.87
21803;BME280;18591;47.080;22.214;2023-10-19T03:19:28;99160.47;;;10.52;55.68
21803;BME280;18591;47.080;22.214;2023-10-19T03:21:30;99150.88;;;10.46;56.54
21803;BME280;18591;47.080;22.214;2023-10-19T03:23:45;99142.88;;;10.45;56.05
21803;BME280;18591;47.080;22.214;2023-10-19T03:25:56;99142.28;;;10.38;56.67
21803;BME280;18591;47.080;22.214;2023-10-19T03:28:17;99136.91;;;10.59;55.59
21803;BME280;18591;47.080;22.214;2023-10-19T03:30:21;99133.06;;;10.64;55.66
21803;BME280;18591;47.080;22.214;2023-10-19T03:32:28;99144.47;;;10.70;55.22
21803;BME280;18591;47.080;22.214;2023-10-19T03:34:35;99130.03;;;10.72;55.38
21803;BME280;18591;47.080;22.214;2023-10-19T03:36:41;99127.19;;;10.75;55.44
21803;BME280;18591;47.080;22.214;2023-10-19T03:38:44;99129.88;;;10.75;55.20
21803;BME280;18591;47.080;22.214;2023-10-19T03:40:49;99123.81;;;10.90;54.81
21803;BME280;18591;47.080;22.214;2023-10-19T03:42:54;99129.91;;;10.94;55.21
21803;BME280;18591;47.080;22.214;2023-10-19T03:44:57;99122.38;;;11.02;55.01
21803;BME280;18591;47.080;22.214;2023-10-19T03:46:59;99131.81;;;11.11;54.63
21803;BME280;18591;47.080;22.214;2023-10-19T03:49:06;99123.69;;;11.13;55.31
21803;BME280;18591;47.080;22.214;2023-10-19T03:51:16;99125.72;;;11.07;55.88
21803;BME280;18591;47.080;22.214;2023-10-19T03:53:19;99118.59;;;11.06;55.10
21803;BME280;18591;47.080;22.214;2023-10-19T03:55:23;99122.34;;;10.83;57.52
21803;BME280;18591;47.080;22.214;2023-10-19T03:57:26;99114.97;;;11.07;55.86
21803;BME280;18591;47.080;22.214;2023-10-19T03:59:32;99111.13;;;11.13;56.55
21803;BME280;18591;47.080;22.214;2023-10-19T04:01:40;99102.31;;;11.09;57.90
21803;BME280;18591;47.080;22.214;2023-10-19T04:03:43;99102.66;;;11.02;57.43
21803;BME280;18591;47.080;22.214;2023-10-19T04:05:45;99086.44;;;11.05;57.21
21803;BME280;18591;47.080;22.214;2023-10-19T04:07:51;99085.91;;;11.16;56.39
21803;BME280;18591;47.080;22.214;2023-10-19T04:09:57;99089.78;;;11.10;57.01
21803;BME280;18591;47.080;22.214;2023-10-19T04:12:09;99092.56;;;11.07;57.80
21803;BME280;18591;47.080;22.214;2023-10-19T04:14:13;99088.09;;;11.07;57.82
21803;BME280;18591;47.080;22.214;2023-10-19T04:16:17;99077.53;;;10.84;58.67
21803;BME280;18591;47.080;22.214;2023-10-19T04:18:19;99088.66;;;10.95;58.46
21803;BME280;18591;47.080;22.214;2023-10-19T04:20:22;99073.47;;;10.94;58.00
21803;BME280;18591;47.080;22.214;2023-10-19T04:22:27;99075.44;;;10.90;58.30
21803;BME280;18591;47.080;22.214;2023-10-19T04:24:30;99068.25;;;10.91;58.62
21803;BME280;18591;47.080;22.214;2023-10-19T04:26:35;99073.03;;;11.03;58.16
21803;BME280;18591;47.080;22.214;2023-10-19T04:28:41;99067.03;;;10.98;59.16
21803;BME280;18591;47.080;22.214;2023-10-19T04:30:52;99063.97;;;11.06;58.61
21803;BME280;18591;47.080;22.214;2023-10-19T04:32:55;99055.19;;;11.02;59.32
21803;BME280;18591;47.080;22.214;2023-10-19T04:35:00;99065.78;;;11.05;58.92
21803;BME280;18591;47.080;22.214;2023-10-19T04:37:03;99064.81;;;11.06;59.27
21803;BME280;18591;47.080;22.214;2023-10-19T04:39:05;99058.00;;;11.18;58.30
21803;BME280;18591;47.080;22.214;2023-10-19T04:41:13;99052.78;;;11.15;58.20
21803;BME280;18591;47.080;22.214;2023-10-19T04:43:17;99051.97;;;11.13;58.32
21803;BME280;18591;47.080;22.214;2023-10-19T04:45:20;99047.91;;;11.23;58.52
21803;BME280;18591;47.080;22.214;2023-10-19T04:47:22;99056.84;;;11.24;59.21
21803;BME280;18591;47.080;22.214;2023-10-19T04:49:28;99057.06;;;11.19;59.17
21803;BME280;18591;47.080;22.214;2023-10-19T04:51:30;99059.75;;;11.19;58.53
21803;BME280;18591;47.080;22.214;2023-10-19T04:53:33;99058.28;;;11.31;58.32
21803;BME280;18591;47.080;22.214;2023-10-19T04:55:36;99059.78;;;11.37;57.81
21803;BME280;18591;47.080;22.214;2023-10-19T04:57:39;99054.13;;;11.24;58.89
21803;BME280;18591;47.080;22.214;2023-10-19T04:59:41;99060.41;;;11.05;59.61
21803;BME280;18591;47.080;22.214;2023-10-19T05:01:47;99054.16;;;11.05;59.44
21803;BME280;18591;47.080;22.214;2023-10-19T05:03:52;99041.00;;;11.18;58.87
21803;BME280;18591;47.080;22.214;2023-10-19T05:05:55;99045.00;;;11.28;58.24
21803;BME280;18591;47.080;22.214;2023-10-19T05:07:58;99040.31;;;11.31;58.11
21803;BME280;18591;47.080;22.214;2023-10-19T05:10:01;99030.16;;;11.19;57.79
21803;BME280;18591;47.080;22.214;2023-10-19T05:12:06;99032.47;;;11.27;57.82
21803;BME280;18591;47.080;22.214;2023-10-19T05:14:13;99028.28;;;11.21;57.24
21803;BME280;18591;47.080;22.214;2023-10-19T05:16:18;99030.53;;;11.30;57.35
21803;BME280;18591;47.080;22.214;2023-10-19T05:18:22;99030.75;;;11.26;57.24
21803;BME280;18591;47.080;22.214;2023-10-19T05:20:24;99025.59;;;11.21;56.85
21803;BME280;18591;47.080;22.214;2023-10-19T05:22:27;99013.00;;;11.41;56.74
21803;BME280;18591;47.080;22.214;2023-10-19T05:24:33;99014.50;;;11.46;56.32
21803;BME280;18591;47.080;22.214;2023-10-19T05:26:36;99011.53;;;11.33;56.63
21803;BME280;18591;47.080;22.214;2023-10-19T05:28:39;99000.84;;;11.32;56.85
21803;BME280;18591;47.080;22.214;2023-10-19T05:30:41;99007.13;;;11.50;56.38
21803;BME280;18591;47.080;22.214;2023-10-19T05:32:44;99010.75;;;11.31;56.70
21803;BME280;18591;47.080;22.214;2023-10-19T05:34:48;99008.50;;;11.59;56.32
21803;BME280;18591;47.080;22.214;2023-10-19T05:36:51;99013.88;;;11.59;56.26
21803;BME280;18591;47.080;22.214;2023-10-19T05:38:54;99015.78;;;11.57;56.47
21803;BME280;18591;47.080;22.214;2023-10-19T05:40:57;99019.00;;;11.63;56.19
21803;BME280;18591;47.080;22.214;2023-10-19T05:43:01;99021.47;;;11.68;56.02
21803;BME280;18591;47.080;22.214;2023-10-19T05:45:05;99012.13;;;11.58;56.55
21803;BME280;18591;47.080;22.214;2023-10-19T05:47:07;99025.53;;;11.40;56.82
21803;BME280;18591;47.080;22.214;2023-10-19T05:49:10;99033.41;;;11.62;56.39
21803;BME280;18591;47.080;22.214;2023-10-19T05:51:13;99024.88;;;11.54;56.63
21803;BME280;18591;47.080;22.214;2023-10-19T05:53:16;99037.63;;;11.68;55.83
21803;BME280;18591;47.080;22.214;2023-10-19T05:55:24;99033.59;;;11.76;56.02
21803;BME280;18591;47.080;22.214;2023-10-19T05:57:27;99049.31;;;11.84;55.68
21803;BME280;18591;47.080;22.214;2023-10-19T05:59:29;99048.63;;;11.81;55.65
21803;BME280;18591;47.080;22.214;2023-10-19T06:01:36;99046.91;;;11.80;55.80
21803;BME280;18591;47.080;22.214;2023-10-19T06:03:39;99043.84;;;11.87;55.94
21803;BME280;18591;47.080;22.214;2023-10-19T06:05:41;99044.31;;;11.95;55.46
21803;BME280;18591;47.080;22.214;2023-10-19T06:07:48;99041.53;;;11.97;55.96
21803;BME280;18591;47.080;22.214;2023-10-19T06:09:51;99044.38;;;11.94;56.00
21803;BME280;18591;47.080;22.214;2023-10-19T06:11:54;99038.53;;;12.03;55.76
21803;BME280;18591;47.080;22.214;2023-10-19T06:13:56;99034.47;;;12.12;55.90
21803;BME280;18591;47.080;22.214;2023-10-19T06:15:59;99031.53;;;12.16;55.47
21803;BME280;18591;47.080;22.214;2023-10-19T06:18:01;99033.22;;;12.19;55.55
21803;BME280;18591;47.080;22.214;2023-10-19T06:20:07;99033.53;;;12.13;56.32
21803;BME280;18591;47.080;22.214;2023-10-19T06:22:30;99030.44;;;12.20;56.21
21803;BME280;18591;47.080;22.214;2023-10-19T06:24:33;99033.66;;;12.27;56.30
21803;BME280;18591;47.080;22.214;2023-10-19T06:26:35;99017.59;;;12.26;56.65
21803;BME280;18591;47.080;22.214;2023-10-19T06:28:41;99015.53;;;12.31;56.74
21803;BME280;18591;47.080;22.214;2023-10-19T06:30:44;99020.00;;;12.48;56.14
21803;BME280;18591;47.080;22.214;2023-10-19T06:33:05;99021.47;;;12.53;57.00
21803;BME280;18591;47.080;22.214;2023-10-19T06:35:08;99011.44;;;12.57;56.71
21803;BME280;18591;47.080;22.214;2023-10-19T06:37:10;99007.09;;;12.70;55.92
21803;BME280;18591;47.080;22.214;2023-10-19T06:39:13;99009.28;;;12.79;55.95
21803;BME280;18591;47.080;22.214;2023-10-19T06:41:16;99007.03;;;12.72;55.52
21803;BME280;18591;47.080;22.214;2023-10-19T06:43:20;99007.91;;;12.88;55.56
21803;BME280;18591;47.080;22.214;2023-10-19T06:45:26;99009.31;;;12.95;55.78
21803;BME280;18591;47.080;22.214;2023-10-19T06:47:28;99010.09;;;12.97;55.73
21803;BME280;18591;47.080;22.214;2023-10-19T06:49:31;99017.91;;;13.02;55.81
21803;BME280;18591;47.080;22.214;2023-10-19T06:51:34;99017.56;;;13.08;55.36
21803;BME280;18591;47.080;22.214;2023-10-19T06:53:36;99013.03;;;13.08;55.90
21803;BME280;18591;47.080;22.214;2023-10-19T06:55:39;99010.09;;;13.13;55.84
21803;BME280;18591;47.080;22.214;2023-10-19T06:57:43;99014.06;;;13.22;55.53
21803;BME280;18591;47.080;22.214;2023-10-19T06:59:46;99016.53;;;13.26;55.50
21803;BME280;18591;47.080;22.214;2023-10-19T07:01:48;99020.16;;;13.25;55.23
21803;BME280;18591;47.080;22.214;2023-10-19T07:03:51;99025.50;;;13.27;55.54
21803;BME280;18591;47.080;22.214;2023-10-19T07:05:55;99019.13;;;13.28;55.37
21803;BME280;18591;47.080;22.214;2023-10-19T07:08:00;99021.97;;;13.25;55.47
21803;BME280;18591;47.080;22.214;2023-10-19T07:10:05;99015.25;;;13.34;54.95
21803;BME280;18591;47.080;22.214;2023-10-19T07:12:08;99026.28;;;13.29;55.35
21803;BME280;18591;47.080;22.214;2023-10-19T07:14:11;99031.75;;;13.27;55.68
21803;BME280;18591;47.080;22.214;2023-10-19T07:16:15;99024.28;;;13.33;55.63
21803;BME280;18591;47.080;22.214;2023-10-19T07:18:18;99029.22;;;13.40;55.34
21803;BME280;18591;47.080;22.214;2023-10-19T07:20:21;99034.19;;;13.48;55.15
21803;BME280;18591;47.080;22.214;2023-10-19T07:22:38;99036.69;;;13.51;56.41
21803;BME280;18591;47.080;22.214;2023-10-19T07:24:41;99036.34;;;13.57;56.80
21803;BME280;18591;47.080;22.214;2023-10-19T07:26:44;99043.47;;;13.58;57.18
21803;BME280;18591;47.080;22.214;2023-10-19T07:28:55;99043.59;;;13.57;57.26
21803;BME280;18591;47.080;22.214;2023-10-19T07:30:58;99042.88;;;13.53;57.72
21803;BME280;18591;47.080;22.214;2023-10-19T07:33:02;99047.22;;;13.56;57.78
21803;BME280;18591;47.080;22.214;2023-10-19T07:35:07;99043.47;;;13.58;57.16
21803;BME280;18591;47.080;22.214;2023-10-19T07:37:10;99050.44;;;13.62;56.80
21803;BME280;18591;47.080;22.214;2023-10-19T07:39:17;99044.00;;;13.65;56.56
21803;BME280;18591;47.080;22.214;2023-10-19T07:41:21;99040.25;;;13.67;56.45
21803;BME280;18591;47.080;22.214;2023-10-19T07:43:23;99046.31;;;13.71;56.53
21803;BME280;18591;47.080;22.214;2023-10-19T07:45:27;99040.13;;;13.69;56.69
21803;BME280;18591;47.080;22.214;2023-10-19T07:47:30;99037.19;;;13.73;56.63
21803;BME280;18591;47.080;22.214;2023-10-19T07:49:35;99035.94;;;13.79;56.62
21803;BME280;18591;47.080;22.214;2023-10-19T07:51:45;99041.94;;;13.84;56.84
21803;BME280;18591;47.080;22.214;2023-10-19T07:53:48;99030.88;;;13.89;56.36
21803;BME280;18591;47.080;22.214;2023-10-19T07:55:51;99023.63;;;13.89;56.52
21803;BME280;18591;47.080;22.214;2023-10-19T07:57:54;99027.03;;;13.93;57.47
21803;BME280;18591;47.080;22.214;2023-10-19T07:59:57;99025.13;;;13.95;57.58
21803;BME280;18591;47.080;22.214;2023-10-19T08:02:01;99011.03;;;14.04;56.75
21803;BME280;18591;47.080;22.214;2023-10-19T08:04:07;99009.19;;;14.05;57.14
21803;BME280;18591;47.080;22.214;2023-10-19T08:06:09;99003.03;;;14.03;57.60
21803;BME280;18591;47.080;22.214;2023-10-19T08:08:12;99005.56;;;14.06;57.82
21803;BME280;18591;47.080;22.214;2023-10-19T08:10:19;98998.50;;;14.03;58.28
21803;BME280;18591;47.080;22.214;2023-10-19T08:12:22;98989.44;;;14.04;58.58
21803;BME280;18591;47.080;22.214;2023-10-19T08:14:27;98991.59;;;14.13;57.95
21803;BME280;18591;47.080;22.214;2023-10-19T08:16:29;98988.88;;;14.13;58.64
21803;BME280;18591;47.080;22.214;2023-10-19T08:18:32;98985.22;;;14.29;57.70
21803;BME280;18591;47.080;22.214;2023-10-19T08:20:37;98976.91;;;14.18;59.09
21803;BME280;18591;47.080;22.214;2023-10-19T08:22:40;98978.75;;;14.17;59.10
21803;BME280;18591;47.080;22.214;2023-10-19T08:24:43;98969.22;;;14.26;59.49
21803;BME280;18591;47.080;22.214;2023-10-19T08:26:47;98973.94;;;14.36;59.13
21803;BME280;18591;47.080;22.214;2023-10-19T08:28:50;98967.00;;;14.47;58.28
21803;BME280;18591;47.080;22.214;2023-10-19T08:30:52;98970.63;;;14.46;58.95
21803;BME280;18591;47.080;22.214;2023-10-19T08:33:04;98969.59;;;14.48;58.65
21803;BME280;18591;47.080;22.214;2023-10-19T08:35:09;98973.06;;;14.50;58.82
21803;BME280;18591;47.080;22.214;2023-10-19T08:37:15;98975.84;;;14.49;59.06
21803;BME280;18591;47.080;22.214;2023-10-19T08:39:17;98974.81;;;14.66;58.04
21803;BME280;18591;47.080;22.214;2023-10-19T08:41:20;98965.94;;;14.64;58.82
21803;BME280;18591;47.080;22.214;2023-10-19T08:43:23;98967.56;;;14.66;58.72
21803;BME280;18591;47.080;22.214;2023-10-19T08:45:26;98967.19;;;14.72;58.56
21803;BME280;18591;47.080;22.214;2023-10-19T08:47:30;98963.03;;;14.67;58.93
21803;BME280;18591;47.080;22.214;2023-10-19T08:49:33;98954.13;;;14.79;58.17
21803;BME280;18591;47.080;22.214;2023-10-19T08:51:37;98955.97;;;14.78;58.69
21803;BME280;18591;47.080;22.214;2023-10-19T08:53:39;98953.94;;;14.82;57.72
21803;BME280;18591;47.080;22.214;2023-10-19T08:55:42;98969.09;;;14.85;57.97
21803;BME280;18591;47.080;22.214;2023-10-19T08:57:52;98962.03;;;14.96;57.78
21803;BME280;18591;47.080;22.214;2023-10-19T08:59:54;98951.69;;;15.03;57.52
21803;BME280;18591;47.080;22.214;2023-10-19T09:02:01;98954.28;;;15.05;57.60
21803;BME280;18591;47.080;22.214;2023-10-19T09:04:06;98962.75;;;15.13;57.57
21803;BME280;18591;47.080;22.214;2023-10-19T09:06:11;98959.94;;;15.14;57.10
21803;BME280;18591;47.080;22.214;2023-10-19T09:08:18;98958.09;;;15.15;57.65
21803;BME280;18591;47.080;22.214;2023-10-19T09:10:26;98952.41;;;15.19;57.14
21803;BME280;18591;47.080;22.214;2023-10-19T09:12:30;98957.91;;;15.18;56.94
21803;BME280;18591;47.080;22.214;2023-10-19T09:14:36;98965.06;;;15.19;56.85
21803;BME280;18591;47.080;22.214;2023-10-19T09:16:56;98962.91;;;15.24;57.15
21803;BME280;18591;47.080;22.214;2023-10-19T09:18:59;98956.69;;;15.36;56.27
21803;BME280;18591;47.080;22.214;2023-10-19T09:21:02;98944.63;;;15.28;56.42
21803;BME280;18591;47.080;22.214;2023-10-19T09:23:10;98948.00;;;15.31;56.12
21803;BME280;18591;47.080;22.214;2023-10-19T09:25:12;98941.63;;;15.32;55.75
21803;BME280;18591;47.080;22.214;2023-10-19T09:27:19;98945.31;;;15.31;55.98
21803;BME280;18591;47.080;22.214;2023-10-19T09:29:23;98941.72;;;15.31;56.31
21803;BME280;18591;47.080;22.214;2023-10-19T09:31:25;98934.47;;;15.31;55.63
21803;BME280;18591;47.080;22.214;2023-10-19T09:33:31;98935.34;;;15.32;56.26
21803;BME280;18591;47.080;22.214;2023-10-19T09:35:37;98931.56;;;15.34;56.03
21803;BME280;18591;47.080;22.214;2023-10-19T09:37:44;98925.84;;;15.39;56.33
21803;BME280;18591;47.080;22.214;2023-10-19T09:39:47;98931.13;;;15.40;56.50
21803;BME280;18591;47.080;22.214;2023-10-19T09:41:51;98910.25;;;15.42;56.26
21803;BME280;18591;47.080;22.214;2023-10-19T09:43:58;98907.22;;;15.34;57.16
21803;BME280;18591;47.080;22.214;2023-10-19T09:46:07;98908.84;;;15.37;56.97
21803;BME280;18591;47.080;22.214;2023-10-19T09:48:10;98918.28;;;15.44;56.84
21803;BME280;18591;47.080;22.214;2023-10-19T09:50:19;98912.97;;;15.42;57.46
21803;BME280;18591;47.080;22.214;2023-10-19T09:52:22;98901.69;;;15.49;57.25
21803;BME280;18591;47.080;22.214;2023-10-19T09:54:48;98898.13;;;15.48;57.48
21803;BME280;18591;47.080;22.214;2023-10-19T09:57:02;98893.28;;;15.53;57.22
21803;BME280;18591;47.080;22.214;2023-10-19T09:59:10;98884.94;;;15.56;57.27
21803;BME280;18591;47.080;22.214;2023-10-19T10:01:15;98880.41;;;15.57;56.95
21803;BME280;18591;47.080;22.214;2023-10-19T10:03:43;98871.22;;;15.59;56.74
21803;BME280;18591;47.080;22.214;2023-10-19T10:05:47;98883.03;;;15.71;56.42
21803;BME280;18591;47.080;22.214;2023-10-19T10:10:21;98871.91;;;15.76;56.85
21803;BME280;18591;47.080;22.214;2023-10-19T10:12:25;98862.56;;;15.80;56.37
21803;BME280;18591;47.080;22.214;2023-10-19T10:14:29;98862.16;;;15.86;56.31
21803;BME280;18591;47.080;22.214;2023-10-19T10:16:34;98842.88;;;15.91;56.63
21803;BME280;18591;47.080;22.214;2023-10-19T10:18:36;98838.84;;;15.96;57.10
21803;BME280;18591;47.080;22.214;2023-10-19T10:20:39;98833.31;;;15.98;56.84
21803;BME280;18591;47.080;22.214;2023-10-19T10:22:43;98836.13;;;16.09;56.74
21803;BME280;18591;47.080;22.214;2023-10-19T10:24:45;98831.66;;;16.08;57.07
21803;BME280;18591;47.080;22.214;2023-10-19T10:26:58;98826.69;;;16.15;56.62
21803;BME280;18591;47.080;22.214;2023-10-19T10:29:15;98828.22;;;16.19;57.04
21803;BME280;18591;47.080;22.214;2023-10-19T10:31:25;98816.03;;;16.24;57.24
21803;BME280;18591;47.080;22.214;2023-10-19T10:33:43;98823.72;;;16.30;56.74
21803;BME280;18591;47.080;22.214;2023-10-19T10:35:53;98819.13;;;16.44;56.21
21803;BME280;18591;47.080;22.214;2023-10-19T10:37:56;98826.28;;;16.45;56.47
21803;BME280;18591;47.080;22.214;2023-10-19T10:40:00;98812.59;;;16.46;56.77
21803;BME280;18591;47.080;22.214;2023-10-19T10:42:07;98809.22;;;16.55;56.14
21803;BME280;18591;47.080;22.214;2023-10-19T10:44:10;98810.75;;;16.60;56.37
21803;BME280;18591;47.080;22.214;2023-10-19T10:46:13;98795.97;;;16.64;56.46
21803;BME280;18591;47.080;22.214;2023-10-19T10:48:17;98791.38;;;16.64;56.48
21803;BME280;18591;47.080;22.214;2023-10-19T10:50:21;98782.81;;;16.70;56.32
21803;BME280;18591;47.080;22.214;2023-10-19T10:52:36;98776.00;;;16.65;56.80
21803;BME280;18591;47.080;22.214;2023-10-19T10:54:39;98761.97;;;16.71;56.70
21803;BME280;18591;47.080;22.214;2023-10-19T10:56:41;98767.28;;;16.72;57.69